Terminal Aerodrome Forecast
Issued by NWS

Current Version | Previous Version | Graphics & Text | Print | Product List | Glossary On
Versions: 1 2 3 4 5 6 7 8 9 10 11 12 13 14 15 16 17 18 19 20 21 22 23 24 25 26 27 28 29 30
311
FTUS41 KPBZ 090727 AAA
TAFHLG
TAF AMD
KHLG 090727Z 0907/1006 19004KT 1SM -SN BR SCT004 OVC035
      TEMPO 0907/0909 1/2SM SHSN BKN004
     FM090900 21003KT 5SM -SHSN BKN015 OVC025
     FM091200 29005KT 3SM -SHSN OVC010
     FM092200 30008KT P6SM BKN025=

USA.gov is the U.S. government's official web portal to all federal, state and local government web resources and services.